Time;durP1;ratioP1;P1;durP2;ratioP2;P2;SDS_P1;SDS_P2;PMS_P1;PMS_P2;Temp;Humidity;BMP_temperature;BMP_pressure;BME280_temperature;BME280_humidity;BME280_pressure;Samples;Min_cycle;Max_cycle;Signal;HPM_P1;HPM_P2
2022/03/05 00:02:03;;;;;;;10.93;8.40;;;;;;;;;;5055051;28;20666;-82
2022/03/05 00:04:30;;;;;;;11.43;8.90;;;;;;;;;;5055082;28;20205;-82
2022/03/05 00:06:58;;;;;;;13.13;9.93;;;;;;;;;;5054732;28;20205;-82
2022/03/05 00:09:26;;;;;;;11.83;8.60;;;;;;;;;;5055006;28;20201;-83
2022/03/05 00:11:53;;;;;;;10.73;9.63;;;;;;;;;;5055122;28;20225;-82
2022/03/05 00:14:21;;;;;;;11.50;9.97;;;;;;;;;;5054966;28;20200;-82
2022/03/05 00:16:48;;;;;;;11.87;9.67;;;;;;;;;;5055036;28;20280;-82
2022/03/05 00:19:15;;;;;;;10.93;8.23;;;;;;;;;;5054473;28;20371;-82
2022/03/05 00:21:42;;;;;;;12.37;9.73;;;;;;;;;;5054678;28;20194;-82
2022/03/05 00:24:09;;;;;;;12.30;9.63;;;;;;;;;;5055852;28;20201;-82
2022/03/05 00:26:38;;;;;;;13.40;10.27;;;;;;;;;;5060338;28;20621;-82
2022/03/05 00:29:06;;;;;;;10.33;9.10;;;;;;;;;;5073829;28;20193;-82
2022/03/05 00:31:33;;;;;;;11.77;9.20;;;;;;;;;;5072893;28;20578;-82
2022/03/05 00:34:00;;;;;;;10.60;8.90;;;;;;;;;;5073415;28;20201;-82
2022/03/05 00:36:30;;;;;;;14.20;9.77;;;;;;;;;;5073007;28;20673;-83
2022/03/05 00:38:57;;;;;;;12.40;9.03;;;;;;;;;;5073078;28;20221;-82
2022/03/05 00:41:24;;;;;;;11.57;8.97;;;;;;;;;;5073139;28;20208;-82
2022/03/05 00:43:53;;;;;;;12.00;9.37;;;;;;;;;;5073312;28;20201;-82
2022/03/05 00:46:20;;;;;;;10.83;8.87;;;;;;;;;;5073063;28;20193;-82
2022/03/05 00:48:47;;;;;;;9.77;8.03;;;;;;;;;;5073160;28;20197;-82
2022/03/05 00:51:14;;;;;;;10.93;8.20;;;;;;;;;;5073480;28;20204;-82
2022/03/05 00:53:42;;;;;;;10.70;9.30;;;;;;;;;;5073375;28;20223;-82
2022/03/05 00:56:09;;;;;;;12.87;9.93;;;;;;;;;;5072841;28;20197;-82
2022/03/05 00:58:36;;;;;;;11.33;9.27;;;;;;;;;;5073115;28;20273;-82
2022/03/05 01:01:05;;;;;;;9.77;8.10;;;;;;;;;;5072979;28;20193;-82
2022/03/05 01:03:32;;;;;;;11.17;9.13;;;;;;;;;;5070808;28;20197;-82
2022/03/05 01:05:59;;;;;;;11.13;9.33;;;;;;;;;;5071577;28;20201;-82
2022/03/05 01:08:27;;;;;;;11.70;10.60;;;;;;;;;;5072869;28;20197;-81
2022/03/05 01:10:54;;;;;;;12.90;8.97;;;;;;;;;;5072829;28;20200;-81
2022/03/05 01:13:21;;;;;;;11.50;10.23;;;;;;;;;;5072487;28;20201;-82
2022/03/05 01:15:48;;;;;;;12.50;10.17;;;;;;;;;;5072722;28;20222;-82
2022/03/05 01:18:17;;;;;;;10.37;8.90;;;;;;;;;;5072615;28;20201;-81
2022/03/05 01:20:44;;;;;;;12.33;9.43;;;;;;;;;;5072771;28;20208;-82
2022/03/05 01:23:11;;;;;;;10.53;9.23;;;;;;;;;;5072266;28;20193;-82
2022/03/05 01:25:38;;;;;;;9.40;8.50;;;;;;;;;;5011982;28;1406611;-82
2022/03/05 01:28:05;;;;;;;12.17;10.43;;;;;;;;;;5072888;28;20204;-82
2022/03/05 01:30:33;;;;;;;11.30;9.50;;;;;;;;;;5073723;28;20661;-82
2022/03/05 01:33:01;;;;;;;11.83;9.13;;;;;;;;;;5072975;28;20633;-81
2022/03/05 01:35:29;;;;;;;10.80;9.63;;;;;;;;;;5073448;28;20201;-82
2022/03/05 01:37:57;;;;;;;14.50;10.63;;;;;;;;;;5073204;28;20201;-82
2022/03/05 01:40:24;;;;;;;11.50;9.67;;;;;;;;;;5073363;28;20279;-82
2022/03/05 01:42:51;;;;;;;10.77;9.67;;;;;;;;;;5073401;28;20193;-82
2022/03/05 01:45:19;;;;;;;14.27;10.20;;;;;;;;;;5066845;28;20577;-82
2022/03/05 01:47:46;;;;;;;10.80;9.70;;;;;;;;;;5053825;28;20213;-82
2022/03/05 01:50:13;;;;;;;11.03;9.83;;;;;;;;;;5052671;28;20194;-82
2022/03/05 01:52:42;;;;;;;13.77;11.03;;;;;;;;;;5052983;28;20588;-82
2022/03/05 01:55:09;;;;;;;14.03;10.70;;;;;;;;;;5052964;28;20702;-82
2022/03/05 01:57:37;;;;;;;11.47;9.73;;;;;;;;;;5053169;28;20587;-82
2022/03/05 02:00:06;;;;;;;10.13;8.90;;;;;;;;;;5052785;28;20728;-82
2022/03/05 02:02:33;;;;;;;13.00;10.00;;;;;;;;;;5034790;28;20209;-81
2022/03/05 02:05:00;;;;;;;13.10;11.00;;;;;;;;;;5051803;28;20603;-82
2022/03/05 02:07:29;;;;;;;13.93;10.73;;;;;;;;;;5072636;28;20662;-82
2022/03/05 02:09:57;;;;;;;17.07;11.23;;;;;;;;;;5072930;28;20435;-82
2022/03/05 02:12:28;;;;;;;12.37;10.83;;;;;;;;;;5072612;28;20215;-82
2022/03/05 02:14:55;;;;;;;14.07;10.93;;;;;;;;;;5072584;28;20185;-82
2022/03/05 02:17:23;;;;;;;12.27;10.27;;;;;;;;;;5072420;28;20645;-82
2022/03/05 02:19:50;;;;;;;15.77;10.63;;;;;;;;;;5072377;28;20267;-83
2022/03/05 02:22:19;;;;;;;13.93;11.43;;;;;;;;;;5072342;28;20224;-83
2022/03/05 02:24:46;;;;;;;16.03;10.90;;;;;;;;;;5072841;28;20594;-82
2022/03/05 02:27:13;;;;;;;13.87;10.87;;;;;;;;;;5072035;28;20683;-83
2022/03/05 02:29:40;;;;;;;13.57;10.80;;;;;;;;;;5072639;28;20200;-83
2022/03/05 02:32:08;;;;;;;14.73;10.87;;;;;;;;;;5071833;28;20601;-83
2022/03/05 02:34:35;;;;;;;13.43;10.30;;;;;;;;;;5072269;28;20197;-83
2022/03/05 02:37:03;;;;;;;11.83;10.37;;;;;;;;;;5072068;28;20204;-83
2022/03/05 02:39:31;;;;;;;12.93;10.40;;;;;;;;;;5072057;28;20232;-83
2022/03/05 02:41:58;;;;;;;11.53;10.33;;;;;;;;;;5071949;28;20201;-83
2022/03/05 02:44:26;;;;;;;12.07;10.00;;;;;;;;;;5072499;28;20208;-82
2022/03/05 02:46:53;;;;;;;11.83;9.80;;;;;;;;;;5071950;28;20197;-82
2022/03/05 02:49:20;;;;;;;10.40;9.30;;;;;;;;;;5071840;28;20204;-82
2022/03/05 02:51:47;;;;;;;11.63;10.40;;;;;;;;;;5072080;28;20694;-83
2022/03/05 02:54:14;;;;;;;16.63;10.63;;;;;;;;;;5072236;28;20637;-83
2022/03/05 02:56:43;;;;;;;12.83;9.70;;;;;;;;;;5071783;28;20688;-82
2022/03/05 02:59:10;;;;;;;11.80;10.00;;;;;;;;;;5071895;28;20649;-83
2022/03/05 03:01:38;;;;;;;13.37;10.50;;;;;;;;;;5071599;28;20201;-83
2022/03/05 03:04:05;;;;;;;13.10;10.17;;;;;;;;;;5071902;28;20204;-83
2022/03/05 03:06:32;;;;;;;12.93;10.67;;;;;;;;;;5071777;28;20208;-82
2022/03/05 03:09:00;;;;;;;12.17;10.03;;;;;;;;;;5071690;28;20204;-83
2022/03/05 03:11:27;;;;;;;10.63;9.53;;;;;;;;;;5071792;28;20200;-83
2022/03/05 03:13:56;;;;;;;13.57;9.90;;;;;;;;;;5071733;28;20208;-82
2022/03/05 03:16:23;;;;;;;10.40;9.20;;;;;;;;;;5071765;28;20209;-83
2022/03/05 03:18:50;;;;;;;11.27;9.57;;;;;;;;;;5071478;28;20193;-83
2022/03/05 03:21:18;;;;;;;13.03;10.13;;;;;;;;;;5071621;28;20228;-82
2022/03/05 03:23:45;;;;;;;12.50;10.53;;;;;;;;;;5071794;28;20197;-82
2022/03/05 03:26:12;;;;;;;11.17;9.73;;;;;;;;;;5071571;28;20232;-82
2022/03/05 03:28:39;;;;;;;10.07;8.37;;;;;;;;;;5071515;28;20197;-82
2022/03/05 03:31:08;;;;;;;12.43;9.57;;;;;;;;;;5071847;28;20689;-82
2022/03/05 03:33:35;;;;;;;17.53;9.73;;;;;;;;;;5071651;28;20196;-82
2022/03/05 03:36:02;;;;;;;11.77;10.00;;;;;;;;;;5071611;28;20197;-82
2022/03/05 03:38:29;;;;;;;12.23;9.17;;;;;;;;;;5071192;28;20208;-82
2022/03/05 03:40:56;;;;;;;11.13;9.93;;;;;;;;;;5071570;28;20233;-82
2022/03/05 03:43:23;;;;;;;11.00;9.73;;;;;;;;;;5071317;28;20197;-82
2022/03/05 03:45:51;;;;;;;12.03;10.73;;;;;;;;;;5071498;28;20201;-82
2022/03/05 03:48:19;;;;;;;12.13;10.30;;;;;;;;;;5071326;28;20228;-83
2022/03/05 03:50:47;;;;;;;14.77;9.67;;;;;;;;;;5071605;28;20197;-82
2022/03/05 03:53:14;;;;;;;11.07;9.80;;;;;;;;;;5071499;28;20205;-82
2022/03/05 03:55:41;;;;;;;12.47;10.60;;;;;;;;;;5071656;28;20674;-82
2022/03/05 03:58:09;;;;;;;13.57;10.93;;;;;;;;;;5071251;28;20677;-82
2022/03/05 04:00:36;;;;;;;12.40;10.60;;;;;;;;;;5071179;28;20271;-82
2022/03/05 04:03:04;;;;;;;16.03;11.27;;;;;;;;;;5071205;28;20204;-82
2022/03/05 04:05:32;;;;;;;12.80;10.10;;;;;;;;;;5071547;28;20205;-82
2022/03/05 04:10:44;;;;;;;10.60;9.03;;;;;;;;;;5071222;28;20196;-82
2022/03/05 04:13:11;;;;;;;11.37;10.07;;;;;;;;;;5073266;28;20581;-82
2022/03/05 04:15:38;;;;;;;15.90;10.83;;;;;;;;;;5075215;28;20193;-83
2022/03/05 04:18:06;;;;;;;12.80;9.73;;;;;;;;;;5074762;28;20193;-82
2022/03/05 04:20:35;;;;;;;11.33;10.20;;;;;;;;;;5074790;28;20612;-82
2022/03/05 04:23:02;;;;;;;10.93;8.93;;;;;;;;;;5075133;28;20193;-82
2022/03/05 04:25:29;;;;;;;10.70;8.70;;;;;;;;;;5074595;28;20255;-82
2022/03/05 04:27:57;;;;;;;13.03;9.37;;;;;;;;;;5074744;28;20197;-83
2022/03/05 04:30:24;;;;;;;11.37;9.70;;;;;;;;;;5074690;28;20189;-83
2022/03/05 04:32:51;;;;;;;14.30;10.53;;;;;;;;;;5074614;28;20654;-83
2022/03/05 04:35:18;;;;;;;12.43;9.83;;;;;;;;;;5074694;28;20643;-83
2022/03/05 04:37:47;;;;;;;10.83;9.17;;;;;;;;;;5074336;28;20193;-82
2022/03/05 04:40:15;;;;;;;15.17;13.43;;;;;;;;;;5074175;28;20220;-82
2022/03/05 04:42:42;;;;;;;17.30;14.90;;;;;;;;;;5074425;28;20762;-82
2022/03/05 04:45:10;;;;;;;17.80;15.30;;;;;;;;;;5074493;28;20197;-82
2022/03/05 04:47:39;;;;;;;12.20;10.50;;;;;;;;;;5074296;28;20204;-83
2022/03/05 04:50:07;;;;;;;13.40;11.50;;;;;;;;;;5074379;28;20197;-82
2022/03/05 04:52:35;;;;;;;12.70;11.27;;;;;;;;;;5074474;28;20200;-83
2022/03/05 04:55:04;;;;;;;11.67;10.47;;;;;;;;;;5074527;28;20204;-83
2022/03/05 04:57:31;;;;;;;14.30;11.53;;;;;;;;;;5074022;28;20197;-82
2022/03/05 04:59:58;;;;;;;20.73;14.40;;;;;;;;;;5074365;28;20225;-82
2022/03/05 05:02:26;;;;;;;14.53;12.70;;;;;;;;;;5073769;28;20700;-83
2022/03/05 05:04:53;;;;;;;22.73;13.77;;;;;;;;;;5074441;28;20586;-82
2022/03/05 05:07:20;;;;;;;17.13;12.73;;;;;;;;;;5073862;28;20201;-82
2022/03/05 05:09:47;;;;;;;15.13;12.43;;;;;;;;;;5073956;28;20197;-82
2022/03/05 05:12:16;;;;;;;16.23;12.50;;;;;;;;;;5074183;28;20201;-82
2022/03/05 05:14:43;;;;;;;11.97;9.77;;;;;;;;;;5074287;28;20204;-83
2022/03/05 05:17:10;;;;;;;12.13;10.17;;;;;;;;;;5074674;28;20203;-83
2022/03/05 05:19:37;;;;;;;13.27;10.23;;;;;;;;;;5074129;28;20215;-83
2022/03/05 05:22:06;;;;;;;11.40;9.13;;;;;;;;;;5073970;28;20201;-82
2022/03/05 05:24:35;;;;;;;13.07;11.73;;;;;;;;;;5073413;28;20193;-83
2022/03/05 05:27:03;;;;;;;13.50;10.80;;;;;;;;;;5074271;28;20681;-83
2022/03/05 05:29:32;;;;;;;12.57;11.27;;;;;;;;;;5074569;28;20732;-83
2022/03/05 05:31:59;;;;;;;15.70;12.60;;;;;;;;;;5072977;28;20280;-83
2022/03/05 05:34:26;;;;;;;17.10;14.00;;;;;;;;;;5072530;28;20209;-84
2022/03/05 05:36:54;;;;;;;16.23;12.13;;;;;;;;;;5072627;28;20193;-84
2022/03/05 05:39:21;;;;;;;19.33;16.13;;;;;;;;;;5073586;28;20579;-84
2022/03/05 05:41:48;;;;;;;26.93;19.27;;;;;;;;;;5071968;28;20229;-85
2022/03/05 05:44:15;;;;;;;21.30;15.07;;;;;;;;;;5073126;28;20723;-84
2022/03/05 05:46:44;;;;;;;20.53;13.83;;;;;;;;;;5073453;28;20262;-84
2022/03/05 05:49:11;;;;;;;19.80;14.10;;;;;;;;;;5073555;28;20223;-84
2022/03/05 05:51:38;;;;;;;19.57;15.43;;;;;;;;;;5073111;28;20196;-84
2022/03/05 05:54:06;;;;;;;23.03;15.30;;;;;;;;;;5072976;28;20201;-84
2022/03/05 05:56:33;;;;;;;22.27;18.33;;;;;;;;;;5072330;28;20255;-85
2022/03/05 05:59:00;;;;;;;21.57;17.20;;;;;;;;;;5072011;28;20205;-85
2022/03/05 06:01:27;;;;;;;19.80;15.03;;;;;;;;;;5072268;28;20217;-86
2022/03/05 06:03:56;;;;;;;17.63;11.33;;;;;;;;;;5071627;28;20205;-86
2022/03/05 06:06:24;;;;;;;14.37;11.23;;;;;;;;;;5071925;28;20201;-86
2022/03/05 06:08:51;;;;;;;14.90;10.97;;;;;;;;;;5072229;28;20196;-86
2022/03/05 06:11:19;;;;;;;14.67;9.80;;;;;;;;;;5072285;28;20197;-85
2022/03/05 06:13:46;;;;;;;10.60;9.50;;;;;;;;;;5072155;28;20666;-85
2022/03/05 06:16:13;;;;;;;10.47;9.40;;;;;;;;;;5071840;28;20200;-86
2022/03/05 06:18:41;;;;;;;17.90;11.43;;;;;;;;;;5071905;28;20197;-85
2022/03/05 06:21:09;;;;;;;16.33;11.13;;;;;;;;;;5071686;28;20225;-84
2022/03/05 06:23:37;;;;;;;19.57;13.27;;;;;;;;;;5071855;28;20189;-85
2022/03/05 06:26:04;;;;;;;11.83;9.97;;;;;;;;;;5071486;28;20229;-85
2022/03/05 06:28:32;;;;;;;13.17;10.47;;;;;;;;;;5071716;28;20251;-86
2022/03/05 06:30:59;;;;;;;14.47;10.60;;;;;;;;;;5071654;28;20212;-85
2022/03/05 06:33:27;;;;;;;10.77;9.53;;;;;;;;;;5071413;28;20209;-84
2022/03/05 06:35:54;;;;;;;13.03;9.60;;;;;;;;;;5071318;28;20201;-85
2022/03/05 06:38:23;;;;;;;13.30;11.20;;;;;;;;;;5071854;28;20208;-85
2022/03/05 06:40:50;;;;;;;15.90;9.97;;;;;;;;;;5072109;28;20225;-85
2022/03/05 06:43:18;;;;;;;13.20;10.60;;;;;;;;;;5072312;28;20322;-85
2022/03/05 06:45:46;;;;;;;12.87;11.23;;;;;;;;;;5072135;28;20246;-85
2022/03/05 06:48:13;;;;;;;39.67;26.40;;;;;;;;;;5072429;28;20193;-85
2022/03/05 06:50:41;;;;;;;46.33;29.63;;;;;;;;;;5071825;28;20197;-84
2022/03/05 06:53:08;;;;;;;38.40;25.17;;;;;;;;;;5072408;28;20192;-85
2022/03/05 06:55:36;;;;;;;19.20;15.03;;;;;;;;;;5072098;28;20212;-85
2022/03/05 06:58:04;;;;;;;16.77;12.67;;;;;;;;;;5072119;28;20197;-84
2022/03/05 07:00:31;;;;;;;16.87;11.57;;;;;;;;;;5072307;28;20646;-84
2022/03/05 07:02:58;;;;;;;14.77;12.63;;;;;;;;;;5072320;28;20260;-85
2022/03/05 07:05:25;;;;;;;14.43;12.70;;;;;;;;;;5071697;28;20201;-85
2022/03/05 07:07:53;;;;;;;15.50;10.67;;;;;;;;;;5077344;28;20193;-84
2022/03/05 07:10:20;;;;;;;14.90;11.80;;;;;;;;;;5079068;28;20223;-83
2022/03/05 07:12:48;;;;;;;16.77;12.80;;;;;;;;;;5080296;28;20197;-83
2022/03/05 07:15:16;;;;;;;14.03;11.80;;;;;;;;;;5080686;28;20201;-83
2022/03/05 07:17:49;;;;;;;20.10;13.20;;;;;;;;;;5082746;28;20533;-84
2022/03/05 07:20:16;;;;;;;14.77;12.73;;;;;;;;;;5083275;28;20185;-83
2022/03/05 07:22:43;;;;;;;22.33;17.00;;;;;;;;;;5081099;28;20197;-84
2022/03/05 07:25:11;;;;;;;18.60;16.43;;;;;;;;;;5080360;28;20774;-83
2022/03/05 07:27:38;;;;;;;22.93;17.73;;;;;;;;;;5080933;28;20212;-84
2022/03/05 07:30:08;;;;;;;23.77;17.17;;;;;;;;;;5082671;28;20240;-85
2022/03/05 07:32:36;;;;;;;22.67;16.57;;;;;;;;;;5084812;28;20205;-88
2022/03/05 07:35:03;;;;;;;18.63;16.07;;;;;;;;;;5078232;28;20193;-86
2022/03/05 07:37:30;;;;;;;37.47;29.47;;;;;;;;;;5071137;28;20265;-84
2022/03/05 07:39:58;;;;;;;42.00;37.53;;;;;;;;;;5070919;28;20197;-84
2022/03/05 07:42:25;;;;;;;19.77;16.00;;;;;;;;;;5071461;28;20225;-85
2022/03/05 07:44:52;;;;;;;29.23;17.10;;;;;;;;;;5070684;28;20297;-83
2022/03/05 07:47:21;;;;;;;21.83;16.27;;;;;;;;;;5071911;28;20854;-87
2022/03/05 07:49:48;;;;;;;21.70;17.23;;;;;;;;;;5075197;28;20689;-84
2022/03/05 07:52:15;;;;;;;17.23;13.93;;;;;;;;;;5075352;28;20577;-87
2022/03/05 07:54:42;;;;;;;19.47;17.23;;;;;;;;;;5074913;28;20670;-83
2022/03/05 07:57:09;;;;;;;22.37;19.00;;;;;;;;;;5074930;28;20189;-86
2022/03/05 07:59:36;;;;;;;17.60;15.23;;;;;;;;;;5074972;28;20197;-84
2022/03/05 08:02:05;;;;;;;18.53;15.60;;;;;;;;;;5074742;28;20232;-83
2022/03/05 08:04:33;;;;;;;21.03;16.97;;;;;;;;;;5074847;28;20196;-84
2022/03/05 08:07:01;;;;;;;17.17;15.37;;;;;;;;;;5075399;28;20197;-88
2022/03/05 08:09:28;;;;;;;24.40;20.70;;;;;;;;;;5074857;28;20562;-84
2022/03/05 08:11:55;;;;;;;19.90;15.70;;;;;;;;;;5074903;28;20193;-83
2022/03/05 08:14:23;;;;;;;16.93;13.30;;;;;;;;;;5074795;28;20212;-84
2022/03/05 08:16:50;;;;;;;68.83;42.07;;;;;;;;;;5074884;28;20201;-84
2022/03/05 08:19:17;;;;;;;18.50;13.53;;;;;;;;;;5074844;28;20197;-84
2022/03/05 08:21:45;;;;;;;17.63;12.80;;;;;;;;;;5074461;28;20228;-83
2022/03/05 08:24:13;;;;;;;16.03;13.20;;;;;;;;;;5074626;28;20737;-83
2022/03/05 08:26:40;;;;;;;21.83;16.63;;;;;;;;;;5074466;28;20240;-84
2022/03/05 08:29:07;;;;;;;26.73;18.77;;;;;;;;;;5074536;28;20197;-84
2022/03/05 08:31:34;;;;;;;54.40;28.23;;;;;;;;;;5074793;28;20197;-85
2022/03/05 08:34:02;;;;;;;26.40;20.07;;;;;;;;;;5074767;28;20200;-83
2022/03/05 08:36:29;;;;;;;16.97;13.97;;;;;;;;;;5074531;28;20201;-84
2022/03/05 08:38:58;;;;;;;21.07;18.07;;;;;;;;;;5074477;28;20201;-83
2022/03/05 08:41:25;;;;;;;14.17;12.67;;;;;;;;;;5074387;28;20217;-84
2022/03/05 08:43:52;;;;;;;10.30;8.93;;;;;;;;;;5074746;28;20227;-84
2022/03/05 08:46:20;;;;;;;10.97;8.30;;;;;;;;;;5074308;28;20208;-85
2022/03/05 08:48:47;;;;;;;13.30;10.00;;;;;;;;;;5074341;28;20197;-84
2022/03/05 08:51:14;;;;;;;13.43;10.73;;;;;;;;;;5074313;28;20199;-84
2022/03/05 08:53:42;;;;;;;15.47;12.37;;;;;;;;;;5074184;28;20798;-84
2022/03/05 08:56:11;;;;;;;11.97;10.10;;;;;;;;;;5074486;28;20584;-84
2022/03/05 08:58:38;;;;;;;14.70;12.13;;;;;;;;;;5074004;28;20197;-84
2022/03/05 09:01:06;;;;;;;15.23;10.60;;;;;;;;;;5073920;28;20231;-84
2022/03/05 09:03:34;;;;;;;11.40;9.97;;;;;;;;;;5074410;28;20235;-84
2022/03/05 09:06:01;;;;;;;13.30;11.77;;;;;;;;;;5074600;28;20678;-84
2022/03/05 09:08:29;;;;;;;10.53;9.53;;;;;;;;;;5074372;28;20582;-84
2022/03/05 09:10:56;;;;;;;14.43;11.30;;;;;;;;;;5074256;28;20197;-83
2022/03/05 09:13:24;;;;;;;12.60;11.30;;;;;;;;;;5074108;28;20205;-85
2022/03/05 09:15:52;;;;;;;13.60;11.87;;;;;;;;;;5075676;28;20204;-84
2022/03/05 09:18:19;;;;;;;12.40;10.87;;;;;;;;;;5074109;28;20197;-84
2022/03/05 09:20:47;;;;;;;13.13;10.10;;;;;;;;;;5074359;28;20216;-84
2022/03/05 09:23:14;;;;;;;11.60;10.13;;;;;;;;;;5073720;28;20231;-82
2022/03/05 09:25:41;;;;;;;11.03;9.90;;;;;;;;;;5074021;28;20232;-83
2022/03/05 09:28:09;;;;;;;13.83;11.33;;;;;;;;;;5073845;28;20197;-83
2022/03/05 09:30:37;;;;;;;12.93;10.73;;;;;;;;;;5073695;28;20197;-83
2022/03/05 09:33:04;;;;;;;15.07;11.43;;;;;;;;;;5073363;28;20193;-83
2022/03/05 09:35:32;;;;;;;24.30;16.23;;;;;;;;;;5073489;28;20697;-82
2022/03/05 09:37:59;;;;;;;15.60;12.97;;;;;;;;;;5073234;28;20570;-83
2022/03/05 09:40:26;;;;;;;16.90;15.10;;;;;;;;;;5073459;28;20196;-83
2022/03/05 09:42:54;;;;;;;15.13;12.67;;;;;;;;;;5073255;28;20264;-83
2022/03/05 09:45:21;;;;;;;11.40;9.73;;;;;;;;;;5073262;28;20204;-84
2022/03/05 09:47:50;;;;;;;16.43;10.50;;;;;;;;;;5073223;28;20189;-84
2022/03/05 09:50:17;;;;;;;11.60;10.40;;;;;;;;;;5073712;28;20197;-83
2022/03/05 09:52:44;;;;;;;16.60;14.67;;;;;;;;;;5072880;28;20195;-83
2022/03/05 09:55:11;;;;;;;14.47;13.00;;;;;;;;;;5073239;28;20688;-81
2022/03/05 09:57:39;;;;;;;10.70;9.50;;;;;;;;;;5072764;28;20670;-81
2022/03/05 10:00:08;;;;;;;8.97;8.13;;;;;;;;;;5072993;28;20193;-81
2022/03/05 10:02:35;;;;;;;14.83;11.00;;;;;;;;;;5072430;28;20225;-81
2022/03/05 10:05:18;;;;;;;23.20;14.00;;;;;;;;;;5071076;28;20240;-81
2022/03/05 10:08:00;;;;;;;16.60;11.47;;;;;;;;;;5071922;28;20642;-81
2022/03/05 10:10:28;;;;;;;10.13;9.07;;;;;;;;;;5072420;28;20604;-81
2022/03/05 10:12:55;;;;;;;29.73;18.60;;;;;;;;;;5072603;28;20193;-81
2022/03/05 10:15:22;;;;;;;25.07;16.23;;;;;;;;;;5072663;28;20205;-81
2022/03/05 10:17:54;;;;;;;11.60;8.33;;;;;;;;;;5072484;28;20694;-81
2022/03/05 10:20:24;;;;;;;9.90;8.90;;;;;;;;;;5072442;28;20196;-81
2022/03/05 10:22:59;;;;;;;12.43;10.83;;;;;;;;;;5072869;28;20221;-81
2022/03/05 10:25:34;;;;;;;13.23;10.30;;;;;;;;;;5072614;28;20232;-81
2022/03/05 10:28:04;;;;;;;23.63;15.03;;;;;;;;;;5072841;28;20264;-81
2022/03/05 10:30:32;;;;;;;12.20;10.73;;;;;;;;;;5072490;28;20193;-80
2022/03/05 10:32:59;;;;;;;14.63;12.80;;;;;;;;;;5072866;28;20218;-81
2022/03/05 10:35:28;;;;;;;18.13;13.07;;;;;;;;;;5072659;28;20193;-80
2022/03/05 10:37:56;;;;;;;21.73;16.47;;;;;;;;;;5072399;28;20203;-81
2022/03/05 10:40:30;;;;;;;21.03;16.67;;;;;;;;;;5072422;28;20244;-81
2022/03/05 10:43:02;;;;;;;25.37;19.07;;;;;;;;;;5072428;28;20204;-80
2022/03/05 10:45:30;;;;;;;21.17;18.30;;;;;;;;;;5072342;28;20254;-81
2022/03/05 10:47:59;;;;;;;13.50;12.00;;;;;;;;;;5072022;28;20237;-80
2022/03/05 10:50:30;;;;;;;14.40;13.00;;;;;;;;;;5072200;28;20201;-81
2022/03/05 10:53:00;;;;;;;14.37;12.03;;;;;;;;;;5072091;28;20185;-83
2022/03/05 10:55:29;;;;;;;10.20;9.30;;;;;;;;;;5072328;28;20197;-81
2022/03/05 10:58:00;;;;;;;11.97;10.13;;;;;;;;;;5072037;28;20708;-80
2022/03/05 11:00:28;;;;;;;12.43;11.20;;;;;;;;;;5072339;28;20276;-81
2022/03/05 11:02:57;;;;;;;19.87;17.07;;;;;;;;;;5071931;28;20221;-81
2022/03/05 11:05:25;;;;;;;25.30;22.70;;;;;;;;;;5072344;28;20234;-81
2022/03/05 11:07:55;;;;;;;19.37;17.40;;;;;;;;;;5071622;28;20216;-81
2022/03/05 11:10:26;;;;;;;20.77;18.50;;;;;;;;;;5072389;28;20602;-81
2022/03/05 11:12:56;;;;;;;24.83;22.37;;;;;;;;;;5072000;28;20632;-81
2022/03/05 11:15:25;;;;;;;24.77;18.07;;;;;;;;;;5072386;28;20588;-81
2022/03/05 11:17:52;;;;;;;9.23;8.27;;;;;;;;;;5071852;28;20211;-80
2022/03/05 11:20:19;;;;;;;13.27;10.67;;;;;;;;;;5071841;28;20197;-80
2022/03/05 11:22:49;;;;;;;9.37;8.57;;;;;;;;;;5075167;28;20602;-80
2022/03/05 11:25:20;;;;;;;12.90;10.33;;;;;;;;;;5076327;28;20255;-80
2022/03/05 11:27:58;;;;;;;11.23;10.13;;;;;;;;;;5076205;28;20192;-80
2022/03/05 11:30:26;;;;;;;12.03;8.63;;;;;;;;;;5075637;28;20193;-80
2022/03/05 11:32:53;;;;;;;12.33;11.03;;;;;;;;;;5075772;28;20288;-79
2022/03/05 11:35:24;;;;;;;12.63;11.30;;;;;;;;;;5075757;28;20197;-80
2022/03/05 11:37:52;;;;;;;11.77;10.60;;;;;;;;;;5075821;28;20205;-80
2022/03/05 11:40:35;;;;;;;22.10;18.23;;;;;;;;;;5075531;28;20205;-80
2022/03/05 11:43:16;;;;;;;20.97;16.53;;;;;;;;;;5075632;28;20735;-80
2022/03/05 11:45:52;;;;;;;16.20;12.83;;;;;;;;;;5076028;28;20638;-80
2022/03/05 11:48:37;;;;;;;52.47;32.87;;;;;;;;;;5075219;28;20295;-80
2022/03/05 11:51:10;;;;;;;61.57;34.47;;;;;;;;;;5075887;28;20574;-80
2022/03/05 11:53:38;;;;;;;81.73;47.20;;;;;;;;;;5075495;28;20189;-79
2022/03/05 11:56:23;;;;;;;22.77;17.17;;;;;;;;;;5075390;28;20201;-80
2022/03/05 11:58:51;;;;;;;118.20;59.10;;;;;;;;;;5075144;28;20189;-80
2022/03/05 12:01:35;;;;;;;129.10;63.33;;;;;;;;;;5075243;28;20291;-80
2022/03/05 12:04:18;;;;;;;128.47;82.63;;;;;;;;;;5075485;28;20231;-79
2022/03/05 12:06:46;;;;;;;115.97;72.10;;;;;;;;;;5075295;28;20185;-79
2022/03/05 12:09:44;;;;;;;31.43;23.53;;;;;;;;;;5075191;28;20274;-80
2022/03/05 12:12:16;;;;;;;19.53;17.40;;;;;;;;;;5055388;28;20197;-80
2022/03/05 12:15:08;;;;;;;15.13;13.53;;;;;;;;;;5075012;28;20186;-80
2022/03/05 12:17:39;;;;;;;20.77;17.60;;;;;;;;;;5075219;28;20599;-80
2022/03/05 12:20:06;;;;;;;19.33;17.30;;;;;;;;;;5074892;28;20185;-80
2022/03/05 12:22:34;;;;;;;15.33;12.80;;;;;;;;;;5074303;28;20311;-80
2022/03/05 12:25:01;;;;;;;14.77;11.83;;;;;;;;;;5075022;28;20232;-80
2022/03/05 12:27:31;;;;;;;16.37;14.37;;;;;;;;;;5074898;28;20189;-80
2022/03/05 12:29:58;;;;;;;22.63;19.27;;;;;;;;;;5074849;28;20684;-79
2022/03/05 12:32:31;;;;;;;26.63;21.67;;;;;;;;;;5074392;28;20576;-80
2022/03/05 12:35:06;;;;;;;12.13;11.03;;;;;;;;;;5074155;28;20185;-80
2022/03/05 12:37:34;;;;;;;22.40;20.20;;;;;;;;;;5074604;28;20231;-80
2022/03/05 12:40:01;;;;;;;20.53;18.40;;;;;;;;;;5074661;28;20193;-80
2022/03/05 12:42:38;;;;;;;18.90;16.43;;;;;;;;;;5074391;28;20239;-80
2022/03/05 12:45:07;;;;;;;12.53;10.53;;;;;;;;;;5074635;28;20672;-80
2022/03/05 12:47:35;;;;;;;24.00;16.60;;;;;;;;;;5074429;28;20193;-80
2022/03/05 12:50:26;;;;;;;15.33;13.63;;;;;;;;;;5071804;28;20193;-82
2022/03/05 12:52:59;;;;;;;137.07;57.90;;;;;;;;;;5073926;28;20189;-82
2022/03/05 12:55:28;;;;;;;43.13;29.53;;;;;;;;;;5074321;28;20204;-81
2022/03/05 12:58:06;;;;;;;81.37;53.93;;;;;;;;;;5074013;28;20228;-82
2022/03/05 13:00:33;;;;;;;28.07;21.50;;;;;;;;;;5073996;28;20724;-82
2022/03/05 13:03:01;;;;;;;15.17;13.57;;;;;;;;;;5073948;28;20221;-81
2022/03/05 13:05:28;;;;;;;20.17;18.00;;;;;;;;;;5074204;28;20688;-81
2022/03/05 13:07:55;;;;;;;18.10;16.20;;;;;;;;;;5073984;28;20231;-81
2022/03/05 13:10:22;;;;;;;15.27;13.27;;;;;;;;;;5073974;28;20201;-81
2022/03/05 13:12:53;;;;;;;11.70;10.57;;;;;;;;;;5073775;28;20284;-83
2022/03/05 13:15:27;;;;;;;21.53;16.33;;;;;;;;;;5074434;28;20613;-82
2022/03/05 13:17:56;;;;;;;14.50;11.60;;;;;;;;;;5073572;28;20553;-82
2022/03/05 13:20:23;;;;;;;13.30;11.97;;;;;;;;;;5073582;28;20197;-83
2022/03/05 13:22:50;;;;;;;13.07;11.03;;;;;;;;;;5073452;28;20220;-83
2022/03/05 13:25:18;;;;;;;11.17;9.93;;;;;;;;;;5073718;28;20541;-83
2022/03/05 13:27:48;;;;;;;12.93;10.57;;;;;;;;;;5073613;28;20242;-84
2022/03/05 13:30:21;;;;;;;10.97;9.87;;;;;;;;;;5073630;28;20582;-83
2022/03/05 13:32:51;;;;;;;12.47;10.97;;;;;;;;;;5073253;28;20185;-82
2022/03/05 13:35:18;;;;;;;12.67;9.73;;;;;;;;;;5073702;28;20185;-81
2022/03/05 13:37:46;;;;;;;15.87;12.23;;;;;;;;;;5073044;28;20200;-81
2022/03/05 13:40:15;;;;;;;42.80;27.03;;;;;;;;;;5073580;28;20224;-82
2022/03/05 13:42:45;;;;;;;188.27;79.83;;;;;;;;;;5073333;28;20221;-81
2022/03/05 13:45:14;;;;;;;47.60;29.80;;;;;;;;;;5072465;28;20197;-81
2022/03/05 13:47:42;;;;;;;20.60;17.07;;;;;;;;;;5073251;28;20296;-81
2022/03/05 13:50:12;;;;;;;18.50;16.57;;;;;;;;;;5073571;28;20200;-81
2022/03/05 13:52:40;;;;;;;10.73;9.63;;;;;;;;;;5073201;28;20197;-82
2022/03/05 13:55:13;;;;;;;37.53;26.30;;;;;;;;;;5072730;28;20197;-82
2022/03/05 13:57:46;;;;;;;25.80;20.67;;;;;;;;;;5072818;28;20185;-82
2022/03/05 14:00:15;;;;;;;32.47;23.40;;;;;;;;;;5073088;28;20268;-82
2022/03/05 14:02:43;;;;;;;13.70;12.23;;;;;;;;;;5072653;28;20220;-82
2022/03/05 14:05:13;;;;;;;14.23;12.73;;;;;;;;;;5073193;28;20201;-81
2022/03/05 14:07:42;;;;;;;25.47;22.23;;;;;;;;;;5066360;28;20296;-81
2022/03/05 14:10:11;;;;;;;20.43;18.27;;;;;;;;;;5072785;28;20201;-81
2022/03/05 14:12:38;;;;;;;18.93;15.60;;;;;;;;;;5072630;28;20193;-81
2022/03/05 14:15:07;;;;;;;22.93;19.63;;;;;;;;;;5072377;28;20593;-81
2022/03/05 14:17:35;;;;;;;16.73;13.03;;;;;;;;;;5072319;28;20204;-81
2022/03/05 14:20:15;;;;;;;20.80;16.83;;;;;;;;;;5072501;28;20201;-81
2022/03/05 14:22:45;;;;;;;15.13;13.60;;;;;;;;;;5072198;28;20181;-81
2022/03/05 14:25:16;;;;;;;26.60;20.60;;;;;;;;;;5072140;28;20697;-81
2022/03/05 14:27:43;;;;;;;15.83;13.27;;;;;;;;;;5072567;28;20214;-82
2022/03/05 14:30:11;;;;;;;20.87;16.13;;;;;;;;;;5072409;28;20197;-82
2022/03/05 14:32:38;;;;;;;14.97;13.33;;;;;;;;;;5072238;28;20719;-82